Middletown, CT (06457)

8:06 PM EDT on July 03, 2015 (GMT -0400)
Cromwell Hills | | Change Station
CLOSE
Current Station
Personal Weather Station
Location: Cromwell, CT
Elevation: 36 ft
Nearby Weather Stations

Elev 36 ft 41.60 °N, 72.68 °W | Updated 55 seconds ago

Clear
Clear
72.1 °F
Feels Like 76 °F
N
2.2
Wind Variable Wind from WSW

Today
High -- | Low -- °F
--% Chance of Precip.
Yesterday
High -- | Low -- °F
Precip. -- in
5:21 AM 8:28 PM
Waning Gibbous, 95% visible
Pressure 29.96 in
Visibility 10.0 miles
Clouds Clear
Heat Index 76 °F
Dew Point 59 °F
Humidity 64%
Rainfall 0.00 in
Snow Depth Not available.
UV 0 out of 12
Pollen 4.00 out of 12
Air Quality Not available.
Flu Activity Not available.
METAR KMMK 032353Z AUTO 00000KT 10SM CLR 22/13 A2996 RMK AO2 SLP145 T02170133 10267 20217 50001 TSNO $

More Conditions Fewer Conditions

Pressure 29.96 in
Visibility 10.0 miles
Clouds Clear
Heat Index 76 °F
Dew Point 59 °F
Humidity 64%
Rainfall 0.00 in
Snow Depth Not available.
UV 0 out of 12
Pollen 4.00 out of 12
Air Quality Not available.
Flu Activity Not available.
METAR KMMK 032353Z AUTO 00000KT 10SM CLR 22/13 A2996 RMK AO2 SLP145 T02170133 10267 20217 50001 TSNO $

More Conditions Fewer Conditions

10-Day Weather Forecast

×

Almanac

Astronomy

Jul. 03, 2015 Rise Set
Actual Time
Civil Twilight
Nautical Twilight
Astronomical Twilight
Moon
Length of Visible Light
Length of Day
Tomorrow will be .
, % of the Moon is Illuminated

Today's Extremes

State Highs State Lows

Community

WunderPhotos

Upload Photos

1,834,831 photos uploaded!

WunderBlogs® & News

Nearby

Air Quality

  Air Quality AQ Index Pollutant
Not available.

Snow Depth

Station Depth Elevation

Earthquake Activity

City Distance Mag. Time & Date
Minimum magnitude displayed is 2.5.

Coastal Water Temperatures

Place Temperature

Stations

Nearby Weather Stations

Station Location Temp. Windchill Dew Point Humidity Wind Precip. Elev Updated Type